createdAt,value
2019-04-14T00:02:44.725Z,102707.13
2019-04-14T00:05:35.476Z,102711.09
2019-04-14T00:08:26.341Z,102705.78
2019-04-14T00:11:15.169Z,102709.72
2019-04-14T00:14:05.223Z,102703.95
2019-04-14T00:16:55.344Z,102710.10
2019-04-14T00:19:45.672Z,102704.34
2019-04-14T00:22:35.672Z,102703.92
2019-04-14T00:25:26.199Z,102709.61
2019-04-14T00:28:16.393Z,102707.86
2019-04-14T00:31:06.576Z,102699.45
2019-04-14T00:33:58.632Z,102698.12
2019-04-14T00:37:05.600Z,102706.00
2019-04-14T00:39:59.658Z,102700.28
2019-04-14T00:42:59.159Z,102695.40
2019-04-14T00:45:56.814Z,102695.83
2019-04-14T00:48:45.888Z,102696.23
2019-04-14T00:51:38.245Z,102697.13
2019-04-14T00:54:32.454Z,102691.37
2019-04-14T00:57:22.940Z,102695.32
2019-04-14T01:00:16.963Z,102696.19
2019-04-14T01:03:05.474Z,102693.08
2019-04-14T01:05:54.986Z,102695.23
2019-04-14T01:08:44.635Z,102692.17
2019-04-14T01:11:34.056Z,102693.89
2019-04-14T01:14:23.366Z,102690.78
2019-04-14T01:17:13.418Z,102692.98
2019-04-14T01:20:03.638Z,102681.52
2019-04-14T01:22:53.230Z,102688.08
2019-04-14T01:25:43.261Z,102677.05
2019-04-14T01:28:33.190Z,102686.28
2019-04-14T01:31:23.058Z,102680.98
2019-04-14T01:34:13.351Z,102681.82
2019-04-14T01:37:02.966Z,102685.37
2019-04-14T01:39:52.543Z,102680.47
2019-04-14T01:42:42.175Z,102687.92
2019-04-14T01:45:31.750Z,102686.17
2019-04-14T01:48:21.442Z,102695.34
2019-04-14T01:51:48.706Z,102686.08
2019-04-14T01:55:09.024Z,102689.17
2019-04-14T01:58:18.584Z,102689.61
2019-04-14T02:01:15.080Z,102693.11
2019-04-14T02:04:04.992Z,102688.23
2019-04-14T02:06:55.233Z,102688.66
2019-04-14T02:09:44.865Z,102685.55
2019-04-14T02:12:34.467Z,102691.67
2019-04-14T02:15:24.460Z,102690.34
2019-04-14T02:18:14.406Z,102685.91
2019-04-14T02:21:04.350Z,102688.53
2019-04-14T02:23:54.066Z,102692.06
2019-04-14T02:26:43.927Z,102692.48
2019-04-14T02:29:34.115Z,102692.89
2019-04-14T02:32:49.533Z,102698.58
2019-04-14T02:35:44.990Z,102693.70
2019-04-14T02:44:32.156Z,102697.59
2019-04-14T02:49:58.179Z,102694.46
2019-04-14T02:55:44.868Z,102694.39
2019-04-14T02:58:42.068Z,102691.72
2019-04-14T03:01:23.362Z,102692.15
2019-04-14T03:04:04.170Z,102691.70
2019-04-14T03:07:04.978Z,102695.23
2019-04-14T03:09:46.990Z,102705.73
2019-04-14T03:18:44.684Z,102701.70
2019-04-14T03:21:49.116Z,102703.48
2019-04-14T03:24:47.292Z,102708.30
2019-04-14T03:27:55.193Z,102708.30
2019-04-14T03:34:06.666Z,102708.23
2019-04-14T03:37:16.511Z,102709.53
2019-04-14T03:39:27.392Z,102711.27
2019-04-14T03:42:24.890Z,102716.98
2019-04-14T03:45:11.147Z,102717.43
2019-04-14T03:48:31.812Z,102725.75
2019-04-14T03:50:55.916Z,102728.81
2019-04-14T03:53:32.124Z,102729.20
2019-04-14T03:56:46.328Z,102722.57
2019-04-14T03:59:36.752Z,102730.95
2019-04-14T04:02:27.176Z,102726.53
2019-04-14T04:05:17.406Z,102732.22
2019-04-14T04:08:07.198Z,102738.35
2019-04-14T04:10:57.602Z,102736.14
2019-04-14T04:13:47.758Z,102740.95
2019-04-14T04:17:12.221Z,102737.80
2019-04-14T04:20:10.994Z,102736.47
2019-04-14T04:23:09.664Z,102743.05
2019-04-14T04:26:06.695Z,102743.42
2019-04-14T04:29:02.760Z,102744.31
2019-04-14T04:32:14.273Z,102741.19
2019-04-14T04:35:13.143Z,102742.06
2019-04-14T04:38:09.584Z,102741.14
2019-04-14T04:40:59.426Z,102744.16
2019-04-14T04:43:49.457Z,102737.14
2019-04-14T04:46:39.512Z,102741.09
2019-04-14T04:49:30.801Z,102748.95
2019-04-14T04:52:21.749Z,102748.52
2019-04-14T04:55:11.252Z,102752.86
2019-04-14T04:58:01.392Z,102746.71
2019-04-14T05:00:54.195Z,102753.28
2019-04-14T05:03:42.831Z,102754.16
2019-04-14T05:07:07.845Z,102751.49
2019-04-14T05:10:17.485Z,102751.47
2019-04-14T05:13:21.181Z,102757.59
2019-04-14T05:16:10.776Z,102756.74
2019-04-14T05:19:12.013Z,102757.16
2019-04-14T05:21:54.040Z,102759.36
2019-04-14T05:24:44.098Z,102758.02
2019-04-14T05:27:34.249Z,102762.41
2019-04-14T05:30:24.314Z,102759.31
2019-04-14T05:33:14.181Z,102762.81
2019-04-14T05:36:04.185Z,102768.94
2019-04-14T05:38:54.180Z,102772.95
2019-04-14T05:41:56.825Z,102768.09
2019-04-14T05:44:36.111Z,102770.36
2019-04-14T05:47:26.194Z,102772.11
2019-04-14T05:50:16.104Z,102765.60
2019-04-14T05:53:06.489Z,102764.77
2019-04-14T05:55:56.766Z,102775.83
2019-04-14T05:58:47.164Z,102770.67
2019-04-14T06:01:36.666Z,102776.89
2019-04-14T06:04:26.485Z,102769.44
2019-04-14T06:07:16.175Z,102780.55
2019-04-14T06:10:06.804Z,102792.48
2019-04-14T06:12:56.373Z,102792.11
2019-04-14T06:15:45.689Z,102794.34
2019-04-14T06:18:34.908Z,102798.38
2019-04-14T06:21:23.970Z,102790.04
2019-04-14T06:24:12.730Z,102791.38
2019-04-14T06:27:03.645Z,102791.87
2019-04-14T06:29:56.709Z,102793.20
2019-04-14T06:32:46.254Z,102801.62
2019-04-14T06:35:54.360Z,102800.34
2019-04-14T06:38:46.625Z,102800.85
2019-04-14T06:41:36.935Z,102795.62
2019-04-14T06:44:26.606Z,102798.74
2019-04-14T06:47:15.872Z,102799.27
2019-04-14T06:50:05.880Z,102794.88
2019-04-14T06:52:54.667Z,102793.20
2019-04-14T06:55:43.887Z,102791.55
2019-04-14T06:58:33.629Z,102795.59
2019-04-14T07:01:23.615Z,102800.09
2019-04-14T07:04:13.183Z,102796.66
2019-04-14T07:07:02.561Z,102802.48
2019-04-14T07:09:52.265Z,102798.20
2019-04-14T07:12:43.029Z,102804.02
2019-04-14T07:15:32.932Z,102806.33
2019-04-14T07:18:22.506Z,102804.67
2019-04-14T07:21:11.923Z,102813.98
2019-04-14T07:24:01.464Z,102814.95
2019-04-14T07:26:51.597Z,102820.30
2019-04-14T07:29:55.761Z,102821.70
2019-04-14T07:33:01.700Z,102816.45
2019-04-14T07:36:09.143Z,102823.60
2019-04-14T07:39:17.546Z,102829.00
2019-04-14T07:42:10.144Z,102820.27
2019-04-14T07:45:13.543Z,102820.80
2019-04-14T07:48:26.418Z,102813.84
2019-04-14T07:51:32.842Z,102814.36
2019-04-14T07:54:29.717Z,102817.58
2019-04-14T07:57:43.154Z,102821.64
2019-04-14T08:00:40.269Z,102819.50
2019-04-14T08:03:49.567Z,102820.01
2019-04-14T08:06:39.482Z,102821.41
2019-04-14T08:09:28.373Z,102822.34
2019-04-14T08:12:17.529Z,102824.15
2019-04-14T08:15:07.372Z,102814.47
2019-04-14T08:17:57.563Z,102814.98
2019-04-14T08:20:46.981Z,102812.78
2019-04-14T08:23:36.218Z,102818.99
2019-04-14T08:26:24.971Z,102822.13
2019-04-14T08:29:14.956Z,102826.58
2019-04-14T08:32:04.270Z,102830.58
2019-04-14T08:34:53.800Z,102826.57
2019-04-14T08:37:43.005Z,102827.01
2019-04-14T08:40:32.433Z,102819.45
2019-04-14T08:43:39.823Z,102832.27
2019-04-14T08:46:42.314Z,102830.00
2019-04-14T08:49:44.092Z,102825.06
2019-04-14T08:52:41.458Z,102823.65
2019-04-14T08:55:39.129Z,102828.41
2019-04-14T08:58:37.978Z,102826.98
2019-04-14T09:01:42.640Z,102824.63
2019-04-14T09:04:56.039Z,102823.14
2019-04-14T09:08:02.269Z,102827.41
2019-04-14T09:10:55.902Z,102826.37
2019-04-14T09:13:44.819Z,102830.10
2019-04-14T09:16:34.278Z,102832.13
2019-04-14T09:19:24.032Z,102826.98
2019-04-14T09:22:13.617Z,102829.38
2019-04-14T09:25:02.829Z,102830.48
2019-04-14T09:27:52.260Z,102824.02
2019-04-14T09:30:41.109Z,102821.56
2019-04-14T09:33:30.924Z,102827.95
2019-04-14T09:36:20.726Z,102834.34
2019-04-14T09:39:09.487Z,102821.69
2019-04-14T09:42:00.904Z,102833.80
2019-04-14T09:44:50.512Z,102832.08
2019-04-14T09:47:40.138Z,102827.21
2019-04-14T09:50:29.713Z,102829.44
2019-04-14T09:53:18.653Z,102820.66
2019-04-14T09:56:08.125Z,102825.67
2019-04-14T09:58:57.707Z,102830.41
2019-04-14T10:01:47.049Z,102838.72
2019-04-14T10:04:35.865Z,102838.64
2019-04-14T10:07:25.116Z,102835.57
2019-04-14T10:10:14.475Z,102832.73
2019-04-14T10:13:04.384Z,102837.38
2019-04-14T10:15:54.197Z,102837.48
2019-04-14T10:18:43.335Z,102834.83
2019-04-14T10:21:33.019Z,102827.19
2019-04-14T10:24:22.787Z,102836.81
2019-04-14T10:27:11.534Z,102836.59
2019-04-14T10:30:00.675Z,102838.23
2019-04-14T10:32:50.589Z,102840.34
2019-04-14T10:35:39.409Z,102832.70
2019-04-14T10:38:28.859Z,102833.27
2019-04-14T10:41:19.389Z,102833.23
2019-04-14T10:44:08.895Z,102838.66
2019-04-14T10:46:58.832Z,102833.77
2019-04-14T10:49:48.023Z,102831.50
2019-04-14T10:52:37.056Z,102837.60
2019-04-14T10:55:26.644Z,102834.34
2019-04-14T10:58:15.555Z,102841.23
2019-04-14T11:01:04.362Z,102841.43
2019-04-14T11:03:53.543Z,102834.64
2019-04-14T11:06:47.578Z,102841.73
2019-04-14T11:09:37.260Z,102833.48
2019-04-14T11:12:26.793Z,102830.86
2019-04-14T11:15:15.712Z,102844.23
2019-04-14T11:18:04.613Z,102839.11
2019-04-14T11:20:54.455Z,102837.86
2019-04-14T11:23:44.061Z,102831.98
2019-04-14T11:26:33.785Z,102833.97
2019-04-14T11:29:23.316Z,102837.28
2019-04-14T11:32:30.953Z,102843.00
2019-04-14T11:35:42.478Z,102839.27
2019-04-14T11:38:38.954Z,102845.08
2019-04-14T11:41:27.936Z,102839.85
2019-04-14T11:44:17.658Z,102838.57
2019-04-14T11:47:07.256Z,102836.52
2019-04-14T11:49:58.463Z,102832.24
2019-04-14T11:52:47.746Z,102833.45
2019-04-14T11:55:37.329Z,102842.41
2019-04-14T11:58:29.139Z,102836.22
2019-04-14T12:01:34.422Z,102838.62
2019-04-14T12:04:31.337Z,102844.25
2019-04-14T12:07:28.073Z,102834.81
2019-04-14T12:10:20.312Z,102844.89
2019-04-14T12:13:10.255Z,102834.83
2019-04-14T12:15:59.762Z,102834.47
2019-04-14T12:18:49.319Z,102831.51
2019-04-14T12:21:38.179Z,102827.00
2019-04-14T12:24:28.293Z,102824.49
2019-04-14T12:27:17.614Z,102825.00
2019-04-14T12:30:11.036Z,102830.42
2019-04-14T12:33:00.364Z,102819.88
2019-04-14T12:35:50.136Z,102830.89
2019-04-14T12:38:39.162Z,102824.58
2019-04-14T12:41:36.193Z,102819.56
2019-04-14T12:44:50.217Z,102821.38
2019-04-14T12:47:54.004Z,102820.69
2019-04-14T12:50:53.008Z,102822.44
2019-04-14T12:53:44.274Z,102822.22
2019-04-14T12:56:34.405Z,102817.31
2019-04-14T12:59:24.621Z,102811.25
2019-04-14T13:02:20.201Z,102823.59
2019-04-14T13:05:10.110Z,102817.57
2019-04-14T13:08:00.521Z,102816.82
2019-04-14T13:10:50.216Z,102813.22
2019-04-14T13:13:39.490Z,102807.14
2019-04-14T13:16:30.111Z,102807.86
2019-04-14T13:19:19.591Z,102804.43
2019-04-14T13:22:08.898Z,102810.71
2019-04-14T13:24:59.011Z,102810.08
2019-04-14T13:27:50.183Z,102799.64
2019-04-14T13:30:42.294Z,102800.45
2019-04-14T13:33:31.422Z,102794.77
2019-04-14T13:36:20.843Z,102791.70
2019-04-14T13:39:12.714Z,102784.33
2019-04-14T13:42:01.620Z,102790.39
2019-04-14T13:44:51.301Z,102788.72
2019-04-14T13:47:43.404Z,102798.23
2019-04-14T13:50:38.228Z,102787.61
2019-04-14T13:53:27.745Z,102790.08
2019-04-14T13:56:16.981Z,102785.44
2019-04-14T13:59:05.864Z,102781.61
2019-04-14T14:01:55.764Z,102781.38
2019-04-14T14:04:44.924Z,102780.52
2019-04-14T14:07:33.977Z,102774.05
2019-04-14T14:10:23.694Z,102776.33
2019-04-14T14:13:26.580Z,102766.79
2019-04-14T14:16:26.023Z,102765.35
2019-04-14T14:19:34.337Z,102757.38
2019-04-14T14:22:37.608Z,102757.47
2019-04-14T14:25:32.563Z,102758.80
2019-04-14T14:28:21.491Z,102749.56
2019-04-14T14:31:10.777Z,102752.19
2019-04-14T14:34:00.350Z,102745.08
2019-04-14T14:36:51.012Z,102737.50
2019-04-14T14:39:40.400Z,102755.28
2019-04-14T14:42:29.534Z,102759.16
2019-04-14T14:45:37.307Z,102749.42
2019-04-14T14:48:45.845Z,102745.41
2019-04-14T14:51:44.757Z,102749.52
2019-04-14T14:54:33.842Z,102741.34
2019-04-14T14:57:27.690Z,102743.14
2019-04-14T15:00:36.277Z,102752.03
2019-04-14T15:03:25.975Z,102746.16
2019-04-14T15:06:16.270Z,102753.27
2019-04-14T15:09:09.119Z,102750.59
2019-04-14T15:12:00.851Z,102749.55
2019-04-14T15:14:50.662Z,102754.38
2019-04-14T15:17:40.168Z,102758.45
2019-04-14T15:20:29.160Z,102751.67
2019-04-14T15:23:24.700Z,102763.41
2019-04-14T15:26:09.724Z,102772.41
2019-04-14T15:28:59.323Z,102770.84
2019-04-14T15:31:48.577Z,102773.11
2019-04-14T15:34:38.080Z,102777.37
2019-04-14T15:37:27.437Z,102772.22
2019-04-14T15:40:18.986Z,102774.09
2019-04-14T15:43:08.251Z,102768.25
2019-04-14T15:45:59.562Z,102760.77
2019-04-14T15:48:48.879Z,102778.06
2019-04-14T15:51:38.103Z,102772.95
2019-04-14T15:54:27.771Z,102767.36
2019-04-14T15:57:36.904Z,102775.71
2019-04-14T16:00:56.112Z,102776.52
2019-04-14T16:03:53.176Z,102771.02
2019-04-14T16:07:17.177Z,102771.20
2019-04-14T16:10:15.680Z,102769.38
2019-04-14T16:13:11.493Z,102776.42
2019-04-14T16:16:11.419Z,102782.02
2019-04-14T16:19:11.747Z,102783.37
2019-04-14T16:22:01.796Z,102781.61
2019-04-14T16:24:51.452Z,102782.02
2019-04-14T16:27:55.052Z,102785.98
2019-04-14T16:31:02.572Z,102783.59
2019-04-14T16:34:26.151Z,102788.79
2019-04-14T16:37:15.835Z,102783.37
2019-04-14T16:40:04.781Z,102792.20
2019-04-14T16:42:55.038Z,102787.68
2019-04-14T16:45:44.693Z,102793.61
2019-04-14T16:48:33.542Z,102790.77
2019-04-14T16:51:27.638Z,102794.27
2019-04-14T16:54:54.705Z,102799.61
2019-04-14T16:58:03.416Z,102794.73
2019-04-14T17:00:58.571Z,102786.40
2019-04-14T17:03:47.497Z,102796.69
2019-04-14T17:06:37.460Z,102784.16
2019-04-14T17:09:27.369Z,102785.41
2019-04-14T17:12:18.469Z,102785.27
2019-04-14T17:15:19.644Z,102783.34
2019-04-14T17:18:19.295Z,102782.66
2019-04-14T17:21:31.901Z,102784.80
2019-04-14T17:24:48.892Z,102781.35
2019-04-14T17:27:46.453Z,102783.85
2019-04-14T17:30:48.845Z,102778.50
2019-04-14T17:33:42.831Z,102777.69
2019-04-14T17:36:44.243Z,102776.92
2019-04-14T17:39:38.889Z,102778.66
2019-04-14T17:42:39.503Z,102785.16
2019-04-14T17:45:40.496Z,102791.03
2019-04-14T17:48:45.704Z,102793.52
2019-04-14T17:51:53.454Z,102795.31
2019-04-14T17:54:48.822Z,102796.76
2019-04-14T17:57:57.306Z,102799.96
2019-04-14T18:01:04.601Z,102799.48
2019-04-14T18:04:00.649Z,102810.77
2019-04-14T18:06:57.510Z,102810.75
2019-04-14T18:10:09.754Z,102812.56
2019-04-14T18:13:20.781Z,102812.04
2019-04-14T18:16:22.923Z,102821.44
2019-04-14T18:19:23.145Z,102824.13
2019-04-14T18:22:12.197Z,102827.27
2019-04-14T18:25:02.310Z,102826.78
2019-04-14T18:28:09.432Z,102831.09
2019-04-14T18:31:24.411Z,102826.17
2019-04-14T18:34:31.376Z,102823.37
2019-04-14T18:37:38.887Z,102832.70
2019-04-14T18:40:36.118Z,102839.77
2019-04-14T18:43:52.918Z,102844.61
2019-04-14T18:46:51.770Z,102844.55
2019-04-14T18:49:53.597Z,102852.49
2019-04-14T18:53:09.506Z,102860.86
2019-04-14T18:56:10.181Z,102865.66
2019-04-14T18:59:26.073Z,102864.63
2019-04-14T19:02:18.724Z,102868.08
2019-04-14T19:05:09.131Z,102882.72
2019-04-14T19:08:03.177Z,102878.03
2019-04-14T19:11:08.393Z,102879.58
2019-04-14T19:13:59.463Z,102877.60
2019-04-14T19:16:53.765Z,102882.31
2019-04-14T19:20:00.560Z,102892.38
2019-04-14T19:22:39.668Z,102889.92
2019-04-14T19:25:30.699Z,102893.74
2019-04-14T19:28:19.873Z,102890.84
2019-04-14T19:31:09.196Z,102900.41
2019-04-14T19:33:59.221Z,102911.23
2019-04-14T19:36:49.030Z,102911.89
2019-04-14T19:39:38.700Z,102916.94
2019-04-14T19:42:28.326Z,102922.44
2019-04-14T19:45:17.647Z,102928.80
2019-04-14T19:48:06.618Z,102929.85
2019-04-14T19:50:57.909Z,102927.75
2019-04-14T19:53:47.172Z,102930.10
2019-04-14T19:56:38.132Z,102921.32
2019-04-14T19:59:29.991Z,102923.66
2019-04-14T20:02:21.165Z,102921.53
2019-04-14T20:05:12.150Z,102916.78
2019-04-14T20:08:03.729Z,102927.11
2019-04-14T20:10:54.269Z,102925.44
2019-04-14T20:13:47.412Z,102929.56
2019-04-14T20:16:44.806Z,102931.88
2019-04-14T20:20:00.396Z,102932.44
2019-04-14T20:23:01.109Z,102937.42
2019-04-14T20:26:14.987Z,102934.42
2019-04-14T20:29:16.499Z,102932.30
2019-04-14T20:32:27.712Z,102941.28
2019-04-14T20:35:17.918Z,102945.80
2019-04-14T20:38:12.919Z,102951.22
2019-04-14T20:41:02.987Z,102953.52
2019-04-14T20:43:53.175Z,102959.37
2019-04-14T20:46:43.091Z,102963.91
2019-04-14T20:49:32.325Z,102966.61
2019-04-14T20:52:25.456Z,102977.83
2019-04-14T20:55:14.908Z,102981.84
2019-04-14T20:58:04.431Z,102980.16
2019-04-14T21:00:55.938Z,102974.44
2019-04-14T21:04:04.878Z,102967.84
2019-04-14T21:07:19.188Z,102972.76
2019-04-14T21:10:18.769Z,102971.92
2019-04-14T21:13:15.029Z,102970.21
2019-04-14T21:16:22.752Z,102972.47
2019-04-14T21:19:27.158Z,102968.05
2019-04-14T21:22:33.573Z,102971.64
2019-04-14T21:25:59.230Z,102958.81
2019-04-14T21:28:54.502Z,102968.17
2019-04-14T21:31:49.976Z,102965.11
2019-04-14T21:34:52.042Z,102970.48
2019-04-14T21:38:10.005Z,102961.63
2019-04-14T21:41:04.208Z,102955.44
2019-04-14T21:43:56.828Z,102958.59
2019-04-14T21:46:47.762Z,102957.28
2019-04-14T21:49:37.339Z,102960.85
2019-04-14T21:52:45.809Z,102964.88
2019-04-14T21:55:35.500Z,102969.77
2019-04-14T21:58:30.077Z,102967.14
2019-04-14T22:02:16.208Z,102963.17
2019-04-14T22:05:14.584Z,102970.72
2019-04-14T22:08:16.053Z,102972.08
2019-04-14T22:11:08.379Z,102966.74
2019-04-14T22:13:59.105Z,102970.75
2019-04-14T22:16:48.121Z,102980.52
2019-04-14T22:19:37.702Z,102975.63
2019-04-14T22:22:26.791Z,102980.08
2019-04-14T22:25:16.322Z,102980.08
2019-04-14T22:28:06.109Z,102989.39
2019-04-14T22:30:55.522Z,102987.61
2019-04-14T22:33:45.283Z,102984.96
2019-04-14T22:36:35.139Z,102983.19
2019-04-14T22:39:24.321Z,102987.17
2019-04-14T22:42:14.628Z,102984.98
2019-04-14T22:45:05.311Z,102982.32
2019-04-14T22:47:54.903Z,102993.39
2019-04-14T22:50:43.713Z,102996.51
2019-04-14T22:53:32.915Z,102996.94
2019-04-14T22:56:21.883Z,103005.83
2019-04-14T22:59:11.574Z,103018.67
2019-04-14T23:02:09.656Z,103020.44
2019-04-14T23:05:11.469Z,103008.48
2019-04-14T23:08:24.182Z,102996.97
2019-04-14T23:11:24.752Z,103010.70
2019-04-14T23:14:31.439Z,103018.69
2019-04-14T23:17:39.655Z,103012.92
2019-04-14T23:20:34.185Z,103006.28
2019-04-14T23:23:38.522Z,103008.07
2019-04-14T23:26:27.410Z,103005.84
2019-04-14T23:29:16.375Z,103008.50
2019-04-14T23:32:06.750Z,103006.30
2019-04-14T23:34:56.732Z,103001.87
2019-04-14T23:37:45.987Z,102990.34
2019-04-14T23:40:35.872Z,102990.34
2019-04-14T23:43:26.616Z,102998.32
2019-04-14T23:46:16.513Z,102997.42
2019-04-14T23:49:06.730Z,102985.05
2019-04-14T23:51:56.131Z,102977.05
2019-04-14T23:54:45.671Z,102971.75
2019-04-14T23:57:34.858Z,102966.89
